sensor_id;sensor_type;location;lat;lon;timestamp;pressure;altitude;pressure_sealevel;temperature;humidity
47082;BME280;33066;49.296;14.470;2023-02-22T00:00:32;96987.72;;;13.70;39.10
47082;BME280;33066;49.296;14.470;2023-02-22T00:02:59;96992.63;;;14.00;38.82
47082;BME280;33066;49.296;14.470;2023-02-22T00:05:23;96995.76;;;13.75;38.73
47082;BME280;33066;49.296;14.470;2023-02-22T00:07:48;96995.33;;;13.75;38.88
47082;BME280;33066;49.296;14.470;2023-02-22T00:10:15;97002.50;;;13.97;39.05
47082;BME280;33066;49.296;14.470;2023-02-22T00:12:40;97001.20;;;13.79;39.07
47082;BME280;33066;49.296;14.470;2023-02-22T00:15:05;96999.91;;;13.88;39.06
47082;BME280;33066;49.296;14.470;2023-02-22T00:17:30;96999.39;;;13.93;39.14
47082;BME280;33066;49.296;14.470;2023-02-22T00:19:55;97000.48;;;13.93;39.07
47082;BME280;33066;49.296;14.470;2023-02-22T00:22:21;97001.79;;;13.95;38.88
47082;BME280;33066;49.296;14.470;2023-02-22T00:24:47;96997.03;;;13.83;38.87
47082;BME280;33066;49.296;14.470;2023-02-22T00:27:11;96994.02;;;13.58;38.91
47082;BME280;33066;49.296;14.470;2023-02-22T00:29:37;96995.92;;;13.80;38.95
47082;BME280;33066;49.296;14.470;2023-02-22T00:32:03;96996.00;;;14.04;39.08
47082;BME280;33066;49.296;14.470;2023-02-22T00:34:28;96996.49;;;14.04;39.09
47082;BME280;33066;49.296;14.470;2023-02-22T00:36:54;96995.36;;;13.53;39.08
47082;BME280;33066;49.296;14.470;2023-02-22T00:39:19;96991.15;;;13.82;39.18
47082;BME280;33066;49.296;14.470;2023-02-22T00:41:44;96991.39;;;13.81;39.14
47082;BME280;33066;49.296;14.470;2023-02-22T00:44:09;96994.51;;;13.76;39.27
47082;BME280;33066;49.296;14.470;2023-02-22T00:46:34;96993.98;;;13.75;39.27
47082;BME280;33066;49.296;14.470;2023-02-22T00:49:00;96987.57;;;13.73;39.45
47082;BME280;33066;49.296;14.470;2023-02-22T00:51:26;96989.22;;;14.01;39.45
47082;BME280;33066;49.296;14.470;2023-02-22T00:53:51;96985.66;;;13.79;39.51
47082;BME280;33066;49.296;14.470;2023-02-22T00:56:16;96987.46;;;13.87;39.36
47082;BME280;33066;49.296;14.470;2023-02-22T00:58:42;96987.28;;;13.91;39.41
47082;BME280;33066;49.296;14.470;2023-02-22T01:01:07;96987.28;;;14.20;39.44
47082;BME280;33066;49.296;14.470;2023-02-22T01:03:33;96989.25;;;13.99;39.41
47082;BME280;33066;49.296;14.470;2023-02-22T01:05:58;96986.26;;;14.04;39.34
47082;BME280;33066;49.296;14.470;2023-02-22T01:08:24;96989.21;;;14.07;39.37
47082;BME280;33066;49.296;14.470;2023-02-22T01:10:49;96984.78;;;13.83;39.36
47082;BME280;33066;49.296;14.470;2023-02-22T01:13:15;96982.78;;;14.34;39.34
47082;BME280;33066;49.296;14.470;2023-02-22T01:15:42;96991.02;;;14.33;39.31
47082;BME280;33066;49.296;14.470;2023-02-22T01:18:06;96986.55;;;13.84;39.40
47082;BME280;33066;49.296;14.470;2023-02-22T01:20:32;96982.10;;;14.04;39.58
47082;BME280;33066;49.296;14.470;2023-02-22T01:22:59;96979.98;;;14.13;39.53
47082;BME280;33066;49.296;14.470;2023-02-22T01:25:23;96975.05;;;14.14;39.60
47082;BME280;33066;49.296;14.470;2023-02-22T01:27:49;96973.50;;;13.91;39.52
47082;BME280;33066;49.296;14.470;2023-02-22T01:30:14;96969.71;;;14.10;39.53
47082;BME280;33066;49.296;14.470;2023-02-22T01:32:41;96966.29;;;13.85;39.40
47082;BME280;33066;49.296;14.470;2023-02-22T01:35:07;96963.34;;;13.97;39.57
47082;BME280;33066;49.296;14.470;2023-02-22T01:37:29;96960.13;;;13.85;39.52
47082;BME280;33066;49.296;14.470;2023-02-22T01:39:54;96957.60;;;14.12;39.49
47082;BME280;33066;49.296;14.470;2023-02-22T01:42:20;96960.17;;;14.11;39.49
47082;BME280;33066;49.296;14.470;2023-02-22T01:47:11;96960.74;;;13.85;39.60
47082;BME280;33066;49.296;14.470;2023-02-22T01:49:39;96962.51;;;14.11;39.65
47082;BME280;33066;49.296;14.470;2023-02-22T01:52:04;96960.70;;;14.17;39.61
47082;BME280;33066;49.296;14.470;2023-02-22T01:54:32;96960.28;;;14.25;39.60
47082;BME280;33066;49.296;14.470;2023-02-22T01:57:01;96959.31;;;14.27;39.46
47082;BME280;33066;49.296;14.470;2023-02-22T01:59:19;96960.74;;;14.28;39.38
47082;BME280;33066;49.296;14.470;2023-02-22T02:01:44;96958.34;;;13.99;39.55
47082;BME280;33066;49.296;14.470;2023-02-22T02:04:12;96954.70;;;13.99;39.77
47082;BME280;33066;49.296;14.470;2023-02-22T02:06:37;96951.80;;;14.25;39.86
47082;BME280;33066;49.296;14.470;2023-02-22T02:09:04;96952.61;;;14.00;39.78
47082;BME280;33066;49.296;14.470;2023-02-22T02:11:27;96949.15;;;13.72;39.79
47082;BME280;33066;49.296;14.470;2023-02-22T02:13:54;96950.37;;;14.00;39.78
47082;BME280;33066;49.296;14.470;2023-02-22T02:16:16;96949.84;;;14.00;39.58
47082;BME280;33066;49.296;14.470;2023-02-22T02:18:42;96947.79;;;13.94;39.69
47082;BME280;33066;49.296;14.470;2023-02-22T02:23:42;96944.85;;;14.11;39.73
47082;BME280;33066;49.296;14.470;2023-02-22T02:30:59;96940.46;;;13.84;39.65
47082;BME280;33066;49.296;14.470;2023-02-22T02:33:18;96940.35;;;13.78;39.78
47082;BME280;33066;49.296;14.470;2023-02-22T02:35:49;96940.98;;;13.77;39.75
47082;BME280;33066;49.296;14.470;2023-02-22T02:38:09;96940.12;;;13.78;39.80
47082;BME280;33066;49.296;14.470;2023-02-22T02:40:32;96939.44;;;13.79;39.77
47082;BME280;33066;49.296;14.470;2023-02-22T02:43:02;96933.53;;;13.85;39.69
47082;BME280;33066;49.296;14.470;2023-02-22T02:45:24;96937.79;;;13.86;39.82
47082;BME280;33066;49.296;14.470;2023-02-22T02:47:48;96938.42;;;14.12;39.71
47082;BME280;33066;49.296;14.470;2023-02-22T02:50:17;96936.00;;;13.93;39.54
47082;BME280;33066;49.296;14.470;2023-02-22T02:52:38;96935.86;;;13.64;39.54
47082;BME280;33066;49.296;14.470;2023-02-22T02:55:02;96935.75;;;13.74;39.67
47082;BME280;33066;49.296;14.470;2023-02-22T02:57:27;96939.09;;;13.78;39.76
47082;BME280;33066;49.296;14.470;2023-02-22T02:59:52;96933.32;;;13.80;39.73
47082;BME280;33066;49.296;14.470;2023-02-22T03:02:30;96925.50;;;14.08;39.78
47082;BME280;33066;49.296;14.470;2023-02-22T03:04:52;96923.71;;;13.64;39.77
47082;BME280;33066;49.296;14.470;2023-02-22T03:09:40;96918.66;;;13.91;39.70
47082;BME280;33066;49.296;14.470;2023-02-22T03:12:10;96913.46;;;13.96;39.60
47082;BME280;33066;49.296;14.470;2023-02-22T03:14:33;96913.98;;;13.85;39.65
47082;BME280;33066;49.296;14.470;2023-02-22T03:16:55;96913.07;;;13.79;39.71
47082;BME280;33066;49.296;14.470;2023-02-22T03:19:24;96916.56;;;13.95;39.82
47082;BME280;33066;49.296;14.470;2023-02-22T03:21:45;96922.00;;;13.72;39.87
47082;BME280;33066;49.296;14.470;2023-02-22T03:24:11;96920.53;;;14.02;39.77
47082;BME280;33066;49.296;14.470;2023-02-22T03:26:35;96917.10;;;14.01;39.88
47082;BME280;33066;49.296;14.470;2023-02-22T03:28:59;96916.56;;;13.83;39.85
47082;BME280;33066;49.296;14.470;2023-02-22T03:31:26;96914.28;;;14.08;39.80
47082;BME280;33066;49.296;14.470;2023-02-22T03:33:53;96914.64;;;14.07;39.79
47082;BME280;33066;49.296;14.470;2023-02-22T03:36:19;96913.91;;;13.84;39.84
47082;BME280;33066;49.296;14.470;2023-02-22T03:38:40;96913.52;;;13.87;39.86
47082;BME280;33066;49.296;14.470;2023-02-22T03:41:07;96910.98;;;13.89;39.83
47082;BME280;33066;49.296;14.470;2023-02-22T03:43:33;96909.00;;;13.70;39.77
47082;BME280;33066;49.296;14.470;2023-02-22T03:45:56;96908.03;;;13.93;39.79
47082;BME280;33066;49.296;14.470;2023-02-22T03:48:24;96906.81;;;13.72;39.75
47082;BME280;33066;49.296;14.470;2023-02-22T03:50:48;96905.93;;;13.93;39.75
47082;BME280;33066;49.296;14.470;2023-02-22T03:53:13;96905.92;;;13.92;39.83
47082;BME280;33066;49.296;14.470;2023-02-22T03:55:37;96901.53;;;13.89;39.71
47082;BME280;33066;49.296;14.470;2023-02-22T03:58:07;96903.38;;;13.73;39.83
47082;BME280;33066;49.296;14.470;2023-02-22T04:00:30;96906.86;;;13.41;39.87
47082;BME280;33066;49.296;14.470;2023-02-22T04:02:54;96909.21;;;13.61;39.93
47082;BME280;33066;49.296;14.470;2023-02-22T04:05:19;96909.25;;;13.59;39.99
47082;BME280;33066;49.296;14.470;2023-02-22T04:07:44;96907.83;;;13.82;40.06
47082;BME280;33066;49.296;14.470;2023-02-22T04:13:00;96903.06;;;13.93;39.56
47082;BME280;33066;49.296;14.470;2023-02-22T04:15:25;96910.27;;;13.81;39.67
47082;BME280;33066;49.296;14.470;2023-02-22T04:17:51;96910.30;;;13.63;39.86
47082;BME280;33066;49.296;14.470;2023-02-22T04:20:16;96907.28;;;13.26;40.00
47082;BME280;33066;49.296;14.470;2023-02-22T04:22:41;96905.15;;;13.71;40.08
47082;BME280;33066;49.296;14.470;2023-02-22T04:25:07;96901.72;;;13.46;40.09
47082;BME280;33066;49.296;14.470;2023-02-22T04:27:33;96901.84;;;13.75;40.05
47082;BME280;33066;49.296;14.470;2023-02-22T04:30:00;96901.93;;;13.52;40.06
47082;BME280;33066;49.296;14.470;2023-02-22T04:32:26;96900.99;;;13.76;40.02
47082;BME280;33066;49.296;14.470;2023-02-22T04:34:50;96897.05;;;13.78;40.10
47082;BME280;33066;49.296;14.470;2023-02-22T04:37:15;96897.47;;;13.59;39.99
47082;BME280;33066;49.296;14.470;2023-02-22T04:39:41;96891.70;;;13.57;39.95
47082;BME280;33066;49.296;14.470;2023-02-22T04:42:07;96891.09;;;13.56;40.02
47082;BME280;33066;49.296;14.470;2023-02-22T04:44:32;96885.68;;;13.85;39.95
47082;BME280;33066;49.296;14.470;2023-02-22T04:46:59;96885.35;;;13.77;39.96
47082;BME280;33066;49.296;14.470;2023-02-22T04:49:25;96882.97;;;13.44;40.03
47082;BME280;33066;49.296;14.470;2023-02-22T04:51:48;96880.18;;;13.60;40.16
47082;BME280;33066;49.296;14.470;2023-02-22T04:54:14;96879.11;;;13.24;40.34
47082;BME280;33066;49.296;14.470;2023-02-22T04:56:39;96876.66;;;13.36;40.28
47082;BME280;33066;49.296;14.470;2023-02-22T04:59:04;96874.56;;;13.62;40.21
47082;BME280;33066;49.296;14.470;2023-02-22T05:01:31;96876.98;;;13.62;40.19
47082;BME280;33066;49.296;14.470;2023-02-22T05:03:58;96876.05;;;13.42;40.52
47082;BME280;33066;49.296;14.470;2023-02-22T05:06:22;96877.76;;;13.74;41.36
47082;BME280;33066;49.296;14.470;2023-02-22T05:08:47;96875.32;;;13.51;41.52
47082;BME280;33066;49.296;14.470;2023-02-22T05:11:13;96875.65;;;13.52;40.70
47082;BME280;33066;49.296;14.470;2023-02-22T05:13:39;96872.97;;;13.62;40.61
47082;BME280;33066;49.296;14.470;2023-02-22T05:16:05;96870.87;;;13.94;41.19
47082;BME280;33066;49.296;14.470;2023-02-22T05:18:30;96871.12;;;13.82;40.36
47082;BME280;33066;49.296;14.470;2023-02-22T05:20:58;96872.79;;;13.84;40.37
47082;BME280;33066;49.296;14.470;2023-02-22T05:23:21;96870.21;;;13.84;40.35
47082;BME280;33066;49.296;14.470;2023-02-22T05:25:48;96871.99;;;13.63;40.18
47082;BME280;33066;49.296;14.470;2023-02-22T05:28:15;96872.65;;;13.64;40.40
47082;BME280;33066;49.296;14.470;2023-02-22T05:30:39;96871.26;;;13.89;40.25
47082;BME280;33066;49.296;14.470;2023-02-22T05:33:03;96869.26;;;13.56;40.64
47082;BME280;33066;49.296;14.470;2023-02-22T05:35:30;96873.14;;;13.76;40.38
47082;BME280;33066;49.296;14.470;2023-02-22T05:37:54;96875.40;;;13.69;40.35
47082;BME280;33066;49.296;14.470;2023-02-22T05:40:21;96875.24;;;13.70;40.63
47082;BME280;33066;49.296;14.470;2023-02-22T05:42:44;96874.98;;;13.68;41.23
47082;BME280;33066;49.296;14.470;2023-02-22T05:45:11;96874.93;;;13.66;41.45
47082;BME280;33066;49.296;14.470;2023-02-22T05:47:35;96876.96;;;13.70;41.26
47082;BME280;33066;49.296;14.470;2023-02-22T05:50:00;96875.95;;;13.74;40.63
47082;BME280;33066;49.296;14.470;2023-02-22T05:52:26;96873.01;;;13.89;40.52
47082;BME280;33066;49.296;14.470;2023-02-22T05:54:51;96873.11;;;13.43;40.11
47082;BME280;33066;49.296;14.470;2023-02-22T05:57:17;96878.75;;;13.72;40.10
47082;BME280;33066;49.296;14.470;2023-02-22T05:59:42;96878.72;;;13.74;40.20
47082;BME280;33066;49.296;14.470;2023-02-22T06:02:07;96880.50;;;13.46;40.02
47082;BME280;33066;49.296;14.470;2023-02-22T06:04:32;96880.21;;;13.64;40.09
47082;BME280;33066;49.296;14.470;2023-02-22T06:06:58;96883.01;;;13.67;40.05
47082;BME280;33066;49.296;14.470;2023-02-22T06:09:23;96881.29;;;13.60;40.04
47082;BME280;33066;49.296;14.470;2023-02-22T06:11:49;96880.12;;;13.32;40.08
47082;BME280;33066;49.296;14.470;2023-02-22T06:14:14;96883.75;;;13.30;40.11
47082;BME280;33066;49.296;14.470;2023-02-22T06:16:39;96885.30;;;13.57;40.08
47082;BME280;33066;49.296;14.470;2023-02-22T06:19:04;96884.31;;;13.59;40.01
47082;BME280;33066;49.296;14.470;2023-02-22T06:21:29;96888.30;;;13.51;40.09
47082;BME280;33066;49.296;14.470;2023-02-22T06:23:55;96888.68;;;13.48;40.14
47082;BME280;33066;49.296;14.470;2023-02-22T06:26:20;96889.46;;;13.33;40.25
47082;BME280;33066;49.296;14.470;2023-02-22T06:28:45;96890.53;;;13.68;40.07
47082;BME280;33066;49.296;14.470;2023-02-22T06:31:10;96890.16;;;13.58;40.18
47082;BME280;33066;49.296;14.470;2023-02-22T06:33:36;96887.27;;;13.41;40.03
47082;BME280;33066;49.296;14.470;2023-02-22T06:36:01;96888.26;;;13.71;39.96
47082;BME280;33066;49.296;14.470;2023-02-22T06:38:26;96889.08;;;13.72;39.99
47082;BME280;33066;49.296;14.470;2023-02-22T06:40:53;96891.65;;;13.52;39.96
47082;BME280;33066;49.296;14.470;2023-02-22T06:43:17;96890.04;;;13.67;39.88
47082;BME280;33066;49.296;14.470;2023-02-22T06:45:44;96890.03;;;13.71;39.73
47082;BME280;33066;49.296;14.470;2023-02-22T06:48:08;96887.23;;;12.81;39.76
47082;BME280;33066;49.296;14.470;2023-02-22T06:50:35;96886.28;;;14.02;39.29
47082;BME280;33066;49.296;14.470;2023-02-22T06:52:59;96884.91;;;13.95;39.47
47082;BME280;33066;49.296;14.470;2023-02-22T06:55:26;96887.16;;;13.94;39.42
47082;BME280;33066;49.296;14.470;2023-02-22T06:57:50;96890.61;;;13.71;39.38
47082;BME280;33066;49.296;14.470;2023-02-22T07:00:16;96893.71;;;13.90;39.39
47082;BME280;33066;49.296;14.470;2023-02-22T07:02:42;96894.96;;;13.82;39.63
47082;BME280;33066;49.296;14.470;2023-02-22T07:05:06;96893.28;;;13.92;40.16
47082;BME280;33066;49.296;14.470;2023-02-22T07:07:32;96890.19;;;13.93;39.79
47082;BME280;33066;49.296;14.470;2023-02-22T07:09:58;96894.13;;;14.23;39.67
47082;BME280;33066;49.296;14.470;2023-02-22T07:12:22;96896.20;;;14.05;39.70
47082;BME280;33066;49.296;14.470;2023-02-22T07:14:47;96895.58;;;13.82;39.75
47082;BME280;33066;49.296;14.470;2023-02-22T07:17:13;96896.83;;;14.02;39.54
47082;BME280;33066;49.296;14.470;2023-02-22T07:19:39;96895.15;;;14.36;39.66
47082;BME280;33066;49.296;14.470;2023-02-22T07:22:04;96898.97;;;13.96;39.43
47082;BME280;33066;49.296;14.470;2023-02-22T07:24:29;96899.89;;;14.26;39.37
47082;BME280;33066;49.296;14.470;2023-02-22T07:26:55;96899.90;;;14.06;39.36
47082;BME280;33066;49.296;14.470;2023-02-22T07:29:21;96901.11;;;14.09;39.57
47082;BME280;33066;49.296;14.470;2023-02-22T07:31:46;96897.56;;;14.06;39.30
47082;BME280;33066;49.296;14.470;2023-02-22T07:34:11;96897.35;;;14.27;39.85
47082;BME280;33066;49.296;14.470;2023-02-22T07:36:36;96896.60;;;14.34;39.66
47082;BME280;33066;49.296;14.470;2023-02-22T07:39:02;96894.21;;;14.13;39.43
47082;BME280;33066;49.296;14.470;2023-02-22T07:41:27;96890.78;;;14.24;39.83
47082;BME280;33066;49.296;14.470;2023-02-22T07:43:53;96890.07;;;14.24;39.90
47082;BME280;33066;49.296;14.470;2023-02-22T07:46:18;96888.93;;;14.31;39.47
47082;BME280;33066;49.296;14.470;2023-02-22T07:48:44;96889.85;;;14.41;39.44
47082;BME280;33066;49.296;14.470;2023-02-22T07:51:09;96882.82;;;14.77;39.13
47082;BME280;33066;49.296;14.470;2023-02-22T07:53:34;96883.81;;;14.64;38.85
47082;BME280;33066;49.296;14.470;2023-02-22T07:56:02;96884.92;;;14.73;38.76
47082;BME280;33066;49.296;14.470;2023-02-22T07:58:27;96884.98;;;14.54;39.36
47082;BME280;33066;49.296;14.470;2023-02-22T08:00:51;96884.49;;;14.79;39.62
47082;BME280;33066;49.296;14.470;2023-02-22T08:03:18;96885.15;;;14.87;39.01
47082;BME280;33066;49.296;14.470;2023-02-22T08:05:47;96884.38;;;14.89;38.76
47082;BME280;33066;49.296;14.470;2023-02-22T08:08:07;96883.71;;;14.93;38.65
47082;BME280;33066;49.296;14.470;2023-02-22T08:10:33;96883.50;;;15.01;38.64
47082;BME280;33066;49.296;14.470;2023-02-22T08:12:58;96881.41;;;15.14;38.53
47082;BME280;33066;49.296;14.470;2023-02-22T08:15:26;96882.55;;;15.00;38.43
47082;BME280;33066;49.296;14.470;2023-02-22T08:17:48;96882.12;;;15.32;38.34
47082;BME280;33066;49.296;14.470;2023-02-22T08:20:13;96878.70;;;15.05;38.37
47082;BME280;33066;49.296;14.470;2023-02-22T08:22:39;96877.67;;;14.91;38.37
47082;BME280;33066;49.296;14.470;2023-02-22T08:25:05;96874.13;;;15.49;38.35
47082;BME280;33066;49.296;14.470;2023-02-22T08:27:30;96875.54;;;15.19;38.21
47082;BME280;33066;49.296;14.470;2023-02-22T08:29:56;96873.14;;;15.69;38.19
47082;BME280;33066;49.296;14.470;2023-02-22T08:32:21;96874.22;;;15.26;38.11
47082;BME280;33066;49.296;14.470;2023-02-22T08:34:46;96872.15;;;15.37;38.17
47082;BME280;33066;49.296;14.470;2023-02-22T08:37:11;96874.33;;;15.49;38.03
47082;BME280;33066;49.296;14.470;2023-02-22T08:39:36;96873.87;;;15.49;37.99
47082;BME280;33066;49.296;14.470;2023-02-22T08:42:01;96872.56;;;15.59;37.86
47082;BME280;33066;49.296;14.470;2023-02-22T08:44:28;96872.89;;;15.65;37.85
47082;BME280;33066;49.296;14.470;2023-02-22T08:46:52;96870.55;;;15.68;37.87
47082;BME280;33066;49.296;14.470;2023-02-22T08:49:18;96867.82;;;15.79;37.70
47082;BME280;33066;49.296;14.470;2023-02-22T08:51:43;96867.78;;;15.84;37.74
47082;BME280;33066;49.296;14.470;2023-02-22T08:54:08;96870.30;;;15.86;37.69
47082;BME280;33066;49.296;14.470;2023-02-22T08:56:34;96869.15;;;15.97;37.52
47082;BME280;33066;49.296;14.470;2023-02-22T08:58:59;96870.07;;;16.06;37.40
47082;BME280;33066;49.296;14.470;2023-02-22T09:01:25;96868.93;;;16.18;37.34
47082;BME280;33066;49.296;14.470;2023-02-22T09:03:50;96872.92;;;16.21;37.36
47082;BME280;33066;49.296;14.470;2023-02-22T09:06:15;96869.70;;;16.09;37.28
47082;BME280;33066;49.296;14.470;2023-02-22T09:08:42;96867.70;;;16.46;37.22
47082;BME280;33066;49.296;14.470;2023-02-22T09:11:06;96865.58;;;16.29;37.03
47082;BME280;33066;49.296;14.470;2023-02-22T09:13:33;96866.47;;;16.52;36.92
47082;BME280;33066;49.296;14.470;2023-02-22T09:15:58;96867.67;;;16.56;36.81
47082;BME280;33066;49.296;14.470;2023-02-22T09:18:26;96867.54;;;16.34;36.89
47082;BME280;33066;49.296;14.470;2023-02-22T09:20:51;96864.85;;;16.61;36.81
47082;BME280;33066;49.296;14.470;2023-02-22T09:23:15;96867.98;;;16.48;36.77
47082;BME280;33066;49.296;14.470;2023-02-22T09:25:40;96866.17;;;16.69;36.75
47082;BME280;33066;49.296;14.470;2023-02-22T09:28:05;96865.67;;;16.60;36.69
47082;BME280;33066;49.296;14.470;2023-02-22T09:30:33;96861.69;;;16.90;36.71
47082;BME280;33066;49.296;14.470;2023-02-22T09:32:58;96859.78;;;16.69;36.56
47082;BME280;33066;49.296;14.470;2023-02-22T09:35:22;96857.97;;;16.58;36.41
47082;BME280;33066;49.296;14.470;2023-02-22T09:37:49;96858.05;;;17.00;36.24
47082;BME280;33066;49.296;14.470;2023-02-22T09:40:15;96855.06;;;16.86;35.98
47082;BME280;33066;49.296;14.470;2023-02-22T09:42:43;96853.37;;;17.00;35.61
47082;BME280;33066;49.296;14.470;2023-02-22T09:45:07;96853.53;;;17.67;35.41
47082;BME280;33066;49.296;14.470;2023-02-22T09:47:36;96852.79;;;17.38;35.23
47082;BME280;33066;49.296;14.470;2023-02-22T09:49:57;96849.68;;;17.54;34.77
47082;BME280;33066;49.296;14.470;2023-02-22T09:52:24;96850.92;;;17.75;34.61
47082;BME280;33066;49.296;14.470;2023-02-22T09:54:46;96850.75;;;17.47;34.60
47082;BME280;33066;49.296;14.470;2023-02-22T09:57:16;96851.23;;;17.52;34.62
47082;BME280;33066;49.296;14.470;2023-02-22T09:59:39;96849.42;;;18.02;34.31
47082;BME280;33066;49.296;14.470;2023-02-22T10:04:38;96848.21;;;17.61;34.58
47082;BME280;33066;49.296;14.470;2023-02-22T10:07:03;96846.31;;;17.96;34.60
47082;BME280;33066;49.296;14.470;2023-02-22T10:09:16;96842.84;;;17.47;34.02
47082;BME280;33066;49.296;14.470;2023-02-22T10:11:49;96840.64;;;17.70;34.24
47082;BME280;33066;49.296;14.470;2023-02-22T10:16:36;96839.29;;;17.72;34.30
47082;BME280;33066;49.296;14.470;2023-02-22T10:19:12;96836.08;;;17.56;34.34
47082;BME280;33066;49.296;14.470;2023-02-22T10:23:56;96833.16;;;17.42;33.32
47082;BME280;33066;49.296;14.470;2023-02-22T10:26:17;96831.59;;;17.61;33.53
47082;BME280;33066;49.296;14.470;2023-02-22T10:28:43;96829.47;;;17.39;33.43
47082;BME280;33066;49.296;14.470;2023-02-22T10:31:08;96828.08;;;17.65;33.11
47082;BME280;33066;49.296;14.470;2023-02-22T10:33:34;96822.56;;;17.59;33.22
47082;BME280;33066;49.296;14.470;2023-02-22T10:35:56;96824.14;;;17.34;33.23
47082;BME280;33066;49.296;14.470;2023-02-22T10:38:25;96822.39;;;17.83;32.92
47082;BME280;33066;49.296;14.470;2023-02-22T10:40:49;96822.95;;;17.65;32.93
47082;BME280;33066;49.296;14.470;2023-02-22T10:43:12;96821.06;;;17.54;32.96
47082;BME280;33066;49.296;14.470;2023-02-22T10:45:38;96819.65;;;17.86;32.66
47082;BME280;33066;49.296;14.470;2023-02-22T10:48:05;96814.95;;;17.89;32.59
47082;BME280;33066;49.296;14.470;2023-02-22T10:50:30;96814.91;;;17.99;32.62
47082;BME280;33066;49.296;14.470;2023-02-22T10:52:54;96810.90;;;17.84;32.23
47082;BME280;33066;49.296;14.470;2023-02-22T10:55:18;96810.36;;;17.92;31.83
47082;BME280;33066;49.296;14.470;2023-02-22T10:57:45;96808.43;;;17.71;31.51
47082;BME280;33066;49.296;14.470;2023-02-22T11:00:15;96805.95;;;17.90;31.18
47082;BME280;33066;49.296;14.470;2023-02-22T11:02:34;96804.03;;;18.15;31.24
47082;BME280;33066;49.296;14.470;2023-02-22T11:05:00;96801.86;;;17.98;31.23
47082;BME280;33066;49.296;14.470;2023-02-22T11:07:28;96802.93;;;18.19;31.06
47082;BME280;33066;49.296;14.470;2023-02-22T11:09:52;96799.79;;;17.86;30.91
47082;BME280;33066;49.296;14.470;2023-02-22T11:12:18;96794.87;;;17.93;30.99
47082;BME280;33066;49.296;14.470;2023-02-22T11:14:40;96793.23;;;17.72;30.91
47082;BME280;33066;49.296;14.470;2023-02-22T11:17:07;96791.04;;;17.85;31.11
47082;BME280;33066;49.296;14.470;2023-02-22T11:19:31;96787.44;;;18.15;31.11
47082;BME280;33066;49.296;14.470;2023-02-22T11:21:58;96786.69;;;18.09;31.28
47082;BME280;33066;49.296;14.470;2023-02-22T11:24:22;96786.04;;;18.27;31.27
47082;BME280;33066;49.296;14.470;2023-02-22T11:26:49;96778.32;;;18.36;31.06
47082;BME280;33066;49.296;14.470;2023-02-22T11:29:18;96774.49;;;18.33;31.00
47082;BME280;33066;49.296;14.470;2023-02-22T11:31:42;96771.36;;;18.69;30.76
47082;BME280;33066;49.296;14.470;2023-02-22T11:34:03;96766.47;;;18.41;30.62
47082;BME280;33066;49.296;14.470;2023-02-22T11:36:32;96761.29;;;18.56;30.49
47082;BME280;33066;49.296;14.470;2023-02-22T11:38:54;96759.31;;;18.98;29.82
47082;BME280;33066;49.296;14.470;2023-02-22T11:41:20;96753.06;;;19.64;29.58
47082;BME280;33066;49.296;14.470;2023-02-22T11:43:45;96749.64;;;19.45;29.59
47082;BME280;33066;49.296;14.470;2023-02-22T11:46:12;96750.67;;;19.63;29.71
47082;BME280;33066;49.296;14.470;2023-02-22T11:48:35;96744.02;;;19.33;29.68
47082;BME280;33066;49.296;14.470;2023-02-22T11:51:08;96741.05;;;19.94;29.30
47082;BME280;33066;49.296;14.470;2023-02-22T11:53:32;96735.21;;;20.37;28.60
47082;BME280;33066;49.296;14.470;2023-02-22T11:56:00;96733.14;;;21.13;27.86
47082;BME280;33066;49.296;14.470;2023-02-22T11:58:25;96734.07;;;21.33;27.33
47082;BME280;33066;49.296;14.470;2023-02-22T12:00:47;96731.74;;;21.89;26.99
47082;BME280;33066;49.296;14.470;2023-02-22T12:05:39;96725.39;;;21.92;26.60
47082;BME280;33066;49.296;14.470;2023-02-22T12:08:08;96722.23;;;22.16;26.19
47082;BME280;33066;49.296;14.470;2023-02-22T12:10:27;96717.97;;;22.68;26.16
47082;BME280;33066;49.296;14.470;2023-02-22T12:12:58;96712.23;;;22.73;25.26
47082;BME280;33066;49.296;14.470;2023-02-22T12:15:16;96712.51;;;22.92;25.24
47082;BME280;33066;49.296;14.470;2023-02-22T12:17:46;96710.46;;;22.85;24.46
47082;BME280;33066;49.296;14.470;2023-02-22T12:20:07;96705.40;;;23.50;24.29
47082;BME280;33066;49.296;14.470;2023-02-22T12:22:31;96704.32;;;23.87;24.08
47082;BME280;33066;49.296;14.470;2023-02-22T12:24:56;96701.54;;;24.51;23.12
47082;BME280;33066;49.296;14.470;2023-02-22T12:27:23;96700.39;;;24.49;22.91
47082;BME280;33066;49.296;14.470;2023-02-22T12:29:44;96699.17;;;24.52;23.05
47082;BME280;33066;49.296;14.470;2023-02-22T12:32:11;96698.46;;;25.03;22.78
47082;BME280;33066;49.296;14.470;2023-02-22T12:34:36;96699.99;;;25.65;22.29
47082;BME280;33066;49.296;14.470;2023-02-22T12:37:03;96702.16;;;25.51;22.37
47082;BME280;33066;49.296;14.470;2023-02-22T12:41:52;96693.28;;;26.39;20.81
47082;BME280;33066;49.296;14.470;2023-02-22T12:44:18;96692.16;;;26.22;20.48
47082;BME280;33066;49.296;14.470;2023-02-22T12:46:40;96694.35;;;26.04;20.32
47082;BME280;33066;49.296;14.470;2023-02-22T12:49:12;96689.98;;;26.17;20.54
47082;BME280;33066;49.296;14.470;2023-02-22T12:51:36;96689.31;;;26.39;20.57
47082;BME280;33066;49.296;14.470;2023-02-22T12:54:00;96685.40;;;26.38;20.71
47082;BME280;33066;49.296;14.470;2023-02-22T12:56:27;96683.23;;;26.53;20.45
47082;BME280;33066;49.296;14.470;2023-02-22T12:58:50;96679.87;;;26.60;20.49
47082;BME280;33066;49.296;14.470;2023-02-22T13:01:12;96675.07;;;26.53;20.37
47082;BME280;33066;49.296;14.470;2023-02-22T13:03:38;96671.66;;;26.77;20.50
47082;BME280;33066;49.296;14.470;2023-02-22T13:06:18;96670.92;;;27.13;20.23